KCAE

Columbia Metropolitan Airport

Columbia, South Carolina, USA
METAR KCAE 170256Z 26004KT 8SM BKN070 24/23 A3009 RMK AO2 LTG DSNT NE SLP187 T02390233 53007
Observed Flight Rules
Oct-17 @ 02:56 UTC (31 minutes ago) Visual Flight Rules
Wind Visibility Clouds
260° at 4 knots 8 miles
  • Broken at 7,000' AGL
Temperatures Readings
Current 24°C / 75°F
Dewpoint 23°C / 73°F
Humidity 94%
Altimeter 30.09" Hg
Pressure 1018.7 hPa
Elevation 70
METAR KCAE 170256Z 26004KT 8SM BKN070 24/23 A3009 RMK AO2 LTG DSNT NE SLP187 T02390233 53007
Observed Flight Rules
Oct-17 @ 02:56 UTC
(31 minutes ago)
VFR
Wind Visibility
260° at 4 knots 8 miles
Clouds
  • Broken at 7,000' AGL
Temperature Dewpoint
24°C / 75°F 23°C / 73°F
Humidity Altimeter Pressure
94% 30.09" Hg 1018.7 hPa